Latest Weather Observations for Frederick Reef

IDQ60801

Issued at 2:05 pm EST Wednesday 24 September 2014 (issued every 30 minutes, with the page automatically refreshed every 10 minutes)

About weather observations | Map of weather stations | Latest weather observations for QLD | Other Formats
Station Details ID: 200701 Name: FREDERICK REEF Lat: -20.94 Lon: 154.40 Height: 4.9 m
Data from the previous 72 hours. | See also: Recent months for locations in Queensland
Date/Time
EST
Temp
°C
App
Temp
°C
Dew
Point
Rel
Hum
%
Delta-T
°C
Wind Press
QNH
hPa
Press
MSL
hPa
Rain
since 9 am
mm
Dir
 
Spd
km/h
Gust
km/h
Spd
kts
Gust
kts
24/02:00pm 22.4 - - - - ESE 33 37 18 20 1017.9 - -
24/01:30pm 22.3 - - - - E 33 37 18 20 1018.2 - -
24/01:00pm 22.2 - - - - ESE 35 39 19 21 1018.5 - -
24/12:30pm 22.0 - - - - E 32 35 17 19 1019.0 - -
24/12:00pm 22.2 - - - - E 35 39 19 21 1019.4 1019.4 -
24/11:30am 22.0 - - - - ESE 37 41 20 22 1019.8 - -
24/11:00am 22.0 - - - - E 33 39 18 21 1020.1 - -
24/10:30am 22.0 - - - - E 35 41 19 22 1020.6 - -
24/10:25am 22.0 - - - - E 35 43 19 23 1020.6 - -
24/10:00am 22.1 - - - - ESE 39 43 21 23 1020.8 - -
24/09:30am 22.0 - - - - ESE 39 43 21 23 1021.0 - -
24/09:00am 22.0 - - - - ESE 39 44 21 24 1021.1 1021.1 -
24/08:30am 21.7 - - - - ESE 43 46 23 25 1021.1 - -
24/08:00am 21.9 - - - - ESE 43 48 23 26 1021.4 - -
24/07:30am 21.4 - - - - ESE 43 50 23 27 1021.0 - -
24/07:00am 21.8 - - - - ESE 46 52 25 28 1020.3 - -
24/06:30am 21.6 - - - - SE 48 52 26 28 1020.2 - -
24/06:00am 21.0 - - - - SE 43 48 23 26 1020.1 1020.1 -
24/05:30am 20.8 - - - - SE 48 54 26 29 1019.6 - -
24/05:00am 20.6 - - - - ESE 44 48 24 26 1019.3 - -
24/04:30am 21.2 - - - - SE 41 46 22 25 1019.5 - -
24/04:04am 21.2 - - - - SE 33 41 18 22 1019.4 - -
24/04:00am 21.0 - - - - E 39 48 21 26 1019.4 - -
24/03:45am 21.6 - - - - E 48 52 26 28 1019.1 - -
24/03:30am 21.3 - - - - SE 41 43 22 23 1019.1 - -
24/03:00am 21.3 - - - - ESE 46 54 25 29 1018.8 1018.8 -
24/02:30am 21.4 - - - - ESE 43 50 23 27 1019.0 - -
24/02:00am 21.1 - - - - ESE 39 50 21 27 1019.2 - -
24/01:30am 21.3 - - - - SE 37 43 20 23 1019.1 - -
24/01:00am 21.0 - - - - ESE 39 43 21 23 1019.7 - -
24/12:30am 22.1 - - - - E 39 46 21 25 1019.9 - -
24/12:00am 21.7 - - - - E 39 43 21 23 1020.3 1020.3 -
 
Date/Time
EST
Temp
°C
App
Temp
°C
Dew
Point
Rel
Hum
%
Delta-T
°C
Wind Press
QNH
hPa
Press
MSL
hPa
Rain
since 9 am
mm
Dir
 
Spd
km/h
Gust
km/h
Spd
kts
Gust
kts
23/11:30pm 21.8 - - - - E 39 43 21 23 1020.7 - -
23/11:00pm 21.7 - - - - E 41 44 22 24 1020.9 - -
23/10:30pm 21.4 - - - - E 43 48 23 26 1020.8 - -
23/10:00pm 20.1 - - - - E 48 56 26 30 1021.0 - -
23/09:30pm 20.9 - - - - E 41 50 22 27 1021.0 - -
23/09:00pm 21.0 - - - - ESE 41 50 22 27 1021.1 1021.1 -
23/08:30pm 21.2 - - - - ESE 48 56 26 30 1020.9 - -
23/08:00pm 21.3 - - - - ESE 50 54 27 29 1020.9 - -
23/07:30pm 21.2 - - - - ESE 52 61 28 33 1020.7 - -
23/07:00pm 21.3 - - - - ESE 46 56 25 30 1020.3 - -
23/06:51pm 20.8 - - - - ESE 48 57 26 31 1020.4 - -
23/06:30pm 21.0 - - - - E 44 52 24 28 1020.3 - -
23/06:00pm 21.4 - - - - E 50 57 27 31 1020.0 1020.0 -
23/05:30pm 21.1 - - - - E 43 52 23 28 1019.8 - -
23/05:00pm 21.6 - - - - E 44 54 24 29 1019.7 - -
23/04:30pm 21.9 - - - - ESE 48 54 26 29 1019.4 - -
23/04:00pm 21.8 - - - - ESE 46 54 25 29 1019.6 - -
23/03:30pm 21.7 - - - - ESE 44 50 24 27 1019.6 - -
23/03:00pm 21.8 - - - - ESE 48 52 26 28 1019.2 1019.2 -
23/02:30pm 21.9 - - - - ESE 48 54 26 29 1019.3 - -
23/02:00pm 20.9 - - - - ESE 48 59 26 32 1019.6 - -
23/01:30pm 21.9 - - - - ESE 43 48 23 26 1019.6 - -
23/01:00pm 21.2 - - - - ESE 46 52 25 28 1019.7 - -
23/12:30pm 22.0 - - - - ESE 46 52 25 28 1020.1 - -
23/12:00pm 22.2 - - - - ESE 44 50 24 27 1020.3 1020.3 -
23/11:30am 22.2 - - - - ESE 46 52 25 28 1020.6 - -
23/11:00am 22.2 - - - - ESE 46 54 25 29 1021.0 - -
23/10:30am 22.0 - - - - ESE 46 50 25 27 1021.3 - -
23/10:00am 21.6 - - - - ESE 44 54 24 29 1021.6 - -
23/09:30am 21.9 - - - - ESE 48 56 26 30 1021.2 - -
23/09:00am 21.8 - - - - ESE 46 54 25 29 1021.7 1021.7 -
23/08:30am 22.4 - - - - ESE 46 54 25 29 1021.5 - -
23/08:00am 22.3 - - - - ESE 44 52 24 28 1021.5 - -
23/07:30am 21.9 - - - - ESE 44 52 24 28 1021.0 - -
23/07:00am 21.6 - - - - ESE 48 56 26 30 1020.7 - -
23/06:30am 21.3 - - - - SE 41 48 22 26 1020.5 - -
23/06:00am 21.9 - - - - ESE 44 52 24 28 1019.8 1019.8 -
23/05:30am 22.3 - - - - ESE 46 57 25 31 1019.2 - -
23/05:00am 21.9 - - - - ESE 48 56 26 30 1018.9 - -
23/04:30am 22.1 - - - - E 46 52 25 28 1018.8 - -
23/04:00am 22.0 - - - - E 48 57 26 31 1018.7 - -
23/03:30am 22.0 - - - - ESE 48 54 26 29 1018.0 - -
23/03:00am 21.5 - - - - E 44 54 24 29 1018.2 1018.2 -
23/02:15am 21.3 - - - - E 48 54 26 29 1018.4 - -
23/02:00am 21.9 - - - - ESE 50 56 27 30 1018.5 - -
23/01:30am 22.3 - - - - ESE 50 57 27 31 1018.6 - -
23/01:00am 22.3 - - - - ESE 48 56 26 30 1019.0 - -
23/12:30am 22.0 - - - - ESE 48 56 26 30 1019.4 - -
23/12:00am 22.0 - - - - ESE 48 56 26 30 1019.9 1019.9 -
 
Date/Time
EST
Temp
°C
App
Temp
°C
Dew
Point
Rel
Hum
%
Delta-T
°C
Wind Press
QNH
hPa
Press
MSL
hPa
Rain
since 9 am
mm
Dir
 
Spd
km/h
Gust
km/h
Spd
kts
Gust
kts
22/11:30pm 22.1 - - - - ESE 48 56 26 30 1020.1 - -
22/11:00pm 22.1 - - - - ESE 50 56 27 30 1020.5 - -
22/10:30pm 21.9 - - - - ESE 50 59 27 32 1020.9 - -
22/10:00pm 22.3 - - - - ESE 50 57 27 31 1020.9 - -
22/09:30pm 22.1 - - - - ESE 46 52 25 28 1021.2 - -
22/09:00pm 21.7 - - - - ESE 52 61 28 33 1021.0 1021.0 -
22/08:30pm 22.3 - - - - ESE 50 56 27 30 1020.7 - -
22/08:00pm 22.1 - - - - ESE 54 59 29 32 1020.4 - -
22/07:30pm 22.2 - - - - ESE 50 59 27 32 1020.5 - -
22/07:00pm 22.4 - - - - ESE 54 65 29 35 1019.5 - -
22/06:30pm 22.4 - - - - E 56 63 30 34 1019.3 - -
22/06:00pm 22.3 - - - - ESE 50 56 27 30 1019.4 1019.4 -
22/05:30pm 22.2 - - - - ESE 50 56 27 30 1018.6 - -
22/05:00pm 22.3 - - - - ESE 48 56 26 30 1018.4 - -
22/04:30pm 22.5 - - - - ESE 52 56 28 30 1017.7 - -
22/04:00pm 22.3 - - - - E 52 59 28 32 1017.9 - -
22/03:30pm 22.3 - - - - E 52 59 28 32 1017.5 - -
22/03:00pm 22.4 - - - - E 54 61 29 33 1017.3 1017.3 -
22/02:30pm 22.5 - - - - E 52 57 28 31 1017.4 - -
22/02:00pm 22.5 - - - - E 46 54 25 29 1017.9 - -
22/01:30pm 22.2 - - - - ESE 48 56 26 30 1018.1 - -
22/01:00pm 22.3 - - - - E 46 54 25 29 1018.3 - -
22/12:30pm 22.1 - - - - ESE 48 56 26 30 1018.6 - -
22/12:00pm 22.5 - - - - E 46 52 25 28 1019.1 1019.1 -
22/11:30am 22.5 - - - - E 48 54 26 29 1019.4 - -
22/11:00am 22.3 - - - - E 50 56 27 30 1019.9 - -
22/10:30am 22.3 - - - - ESE 48 57 26 31 1020.3 - -
22/10:00am 22.2 - - - - E 52 57 28 31 1020.3 - -
22/09:30am 22.1 - - - - ESE 52 59 28 32 1020.3 - -
22/09:00am 22.2 - - - - ESE 54 59 29 32 1020.3 1020.3 -
22/08:30am 22.1 - - - - ESE 52 59 28 32 1020.0 - -
22/08:00am 22.0 - - - - ESE 48 56 26 30 1019.8 - -
22/07:30am 21.8 - - - - ESE 46 54 25 29 1019.8 - -
22/07:00am 22.0 - - - - ESE 46 57 25 31 1019.6 - -
22/06:30am 21.8 - - - - ESE 50 57 27 31 1019.4 - -
22/06:00am 21.7 - - - - E 50 57 27 31 1018.8 1018.8 -
22/05:30am 21.8 - - - - ESE 48 56 26 30 1018.9 - -
22/05:00am 21.6 - - - - ESE 50 56 27 30 1018.9 - -
22/04:30am 21.7 - - - - ESE 48 54 26 29 1018.6 - -
22/04:00am 21.7 - - - - ESE 48 54 26 29 1018.4 - -
22/03:30am 21.7 - - - - ESE 50 57 27 31 1018.3 - -
22/03:00am 21.7 - - - - ESE 48 54 26 29 1018.3 1018.3 -
22/02:30am 21.8 - - - - ESE 44 52 24 28 1018.6 - -
22/02:00am 21.8 - - - - ESE 48 54 26 29 1018.8 - -
22/01:30am 21.5 - - - - ESE 46 56 25 30 1019.1 - -
22/01:00am 21.8 - - - - ESE 48 56 26 30 1019.1 - -
22/12:30am 22.0 - - - - E 54 59 29 32 1019.5 - -
22/12:00am 21.8 - - - - ESE 54 61 29 33 1019.9 1019.9 -
 
Date/Time
EST
Temp
°C
App
Temp
°C
Dew
Point
Rel
Hum
%
Delta-T
°C
Wind Press
QNH
hPa
Press
MSL
hPa
Rain
since 9 am
mm
Dir
 
Spd
km/h
Gust
km/h
Spd
kts
Gust
kts
21/11:30pm 21.8 - - - - ESE 56 65 30 35 1020.3 - -
21/11:00pm 21.9 - - - - ESE 56 65 30 35 1020.6 - -
21/10:30pm 21.7 - - - - ESE 50 59 27 32 1020.5 - -
21/10:26pm 21.3 - - - - ESE 48 59 26 32 1020.7 - -
21/10:20pm 21.4 - - - - E 41 56 22 30 1020.7 - -
21/10:00pm 21.8 - - - - ESE 48 56 26 30 1020.5 - -
21/09:30pm 22.0 - - - - ESE 46 54 25 29 1020.6 - -
21/09:00pm 22.1 - - - - ESE 52 57 28 31 1020.3 1020.3 -
21/08:30pm 22.0 - - - - E 48 54 26 29 1020.1 - -
21/08:00pm 21.9 - - - - ESE 48 54 26 29 1020.0 - -
21/07:30pm 22.1 - - - - ESE 48 57 26 31 1019.8 - -
21/07:00pm 22.0 - - - - ESE 52 57 28 31 1019.6 - -
21/06:30pm 22.0 - - - - ESE 52 59 28 32 1019.4 - -
21/06:00pm 22.0 - - - - ESE 54 59 29 32 1019.3 1019.3 -
21/05:30pm 22.0 - - - - ESE 50 57 27 31 1019.0 - -
21/05:00pm 21.9 - - - - ESE 52 57 28 31 1018.8 - -
21/04:30pm 22.1 - - - - ESE 50 57 27 31 1018.9 - -
21/04:00pm 22.0 - - - - ESE 50 56 27 30 1018.9 - -
21/03:30pm 22.0 - - - - ESE 50 56 27 30 1018.7 - -
21/03:00pm 22.2 - - - - ESE 50 56 27 30 1018.7 1018.7 -
21/02:30pm 22.1 - - - - ESE 46 52 25 28 1018.6 - -

Other Formats:

Comma delimited format used in spreadsheet applications
http://www.bom.gov.au/fwo/IDQ60801/IDQ60801.94393.axf

JavaScript Object Notation format (JSON) in row-major order
http://www.bom.gov.au/fwo/IDQ60801/IDQ60801.94393.json